Time;durP1;ratioP1;P1;durP2;ratioP2;P2;SDS_P1;SDS_P2;PMS_P1;PMS_P2;Temp;Humidity;BMP_temperature;BMP_pressure;BME280_temperature;BME280_humidity;BME280_pressure;Samples;Min_cycle;Max_cycle;Signal;HPM_P1;HPM_P2
2022/03/18 00:00:16;;;;;;;22.70;15.87;;;9.50;99.90;;;10.28;55.24;103356.84;4939161;28;98578;-56
2022/03/18 00:02:42;;;;;;;21.07;16.13;;;9.40;99.90;;;10.24;55.35;103349.75;4935128;28;102039;-58
2022/03/18 00:05:20;;;;;;;18.53;15.40;;;9.40;99.90;;;10.21;54.19;103355.00;4894055;28;97899;-58
2022/03/18 00:07:46;;;;;;;19.17;15.47;;;9.40;99.90;;;10.17;54.47;103357.59;4905548;28;97773;-56
2022/03/18 00:10:17;;;;;;;24.80;16.70;;;9.40;99.90;;;10.05;54.33;103353.97;4933080;28;99012;-54
2022/03/18 00:12:45;;;;;;;22.13;16.73;;;9.30;99.90;;;10.04;55.08;103362.75;4942268;28;98857;-55
2022/03/18 00:15:13;;;;;;;25.07;17.07;;;9.30;99.90;;;10.05;55.81;103363.63;4933230;28;104104;-57
2022/03/18 00:17:40;;;;;;;20.87;16.53;;;9.30;99.90;;;9.97;55.75;103363.53;4937618;28;97909;-53
2022/03/18 00:20:11;;;;;;;21.13;16.30;;;9.20;99.90;;;9.94;54.72;103365.28;4937674;28;97032;-61
2022/03/18 00:22:37;;;;;;;23.97;17.23;;;9.10;99.90;;;9.99;55.52;103360.94;4935514;28;104534;-51
2022/03/18 00:25:06;;;;;;;20.93;15.90;;;9.20;99.90;;;10.00;54.73;103360.09;4939817;28;98781;-57
2022/03/18 00:27:35;;;;;;;22.73;16.90;;;9.20;99.90;;;9.99;54.52;103364.47;4933360;28;97387;-55
2022/03/18 00:30:01;;;;;;;23.37;15.80;;;9.20;99.90;;;10.11;55.30;103361.03;4929805;28;97151;-59
2022/03/18 00:32:28;;;;;;;23.23;16.87;;;9.20;99.90;;;10.10;53.94;103356.63;4938467;28;98907;-59
2022/03/18 00:34:53;;;;;;;25.70;17.23;;;9.30;99.90;;;10.20;54.80;103363.78;4945895;28;97050;-57
2022/03/18 00:37:20;;;;;;;21.40;16.27;;;9.30;99.90;;;10.20;54.26;103358.50;4935009;28;96847;-58
2022/03/18 00:39:46;;;;;;;24.57;17.80;;;9.30;99.90;;;10.22;54.38;103367.34;4925799;28;100393;-55
2022/03/18 00:42:12;;;;;;;23.57;17.97;;;9.30;99.90;;;10.10;52.96;103361.91;4935043;28;100258;-54
2022/03/18 00:44:40;;;;;;;24.47;17.70;;;9.30;99.90;;;10.08;54.17;103374.22;4942853;28;96920;-57
2022/03/18 00:52:02;;;;;;;25.47;17.07;;;9.20;99.90;;;9.97;54.86;103368.81;4934974;28;97066;-61
2022/03/18 00:52:37;;;;;;;21.73;16.83;;;9.10;99.90;;;10.00;54.40;103360.09;4929061;28;100412;-55
2022/03/18 00:55:04;;;;;;;19.90;15.63;;;9.20;99.90;;;10.01;55.31;103367.13;4930242;28;97167;-54
2022/03/18 00:57:30;;;;;;;22.23;16.67;;;9.10;99.90;;;9.94;54.82;103365.28;4939478;28;96845;-59
2022/03/18 00:59:56;;;;;;;20.07;16.67;;;9.00;99.90;;;9.92;53.70;103364.38;4945647;28;96903;-59
2022/03/18 01:02:21;;;;;;;22.43;15.80;;;9.00;99.90;;;9.99;54.71;103368.88;4938880;28;97721;-53
2022/03/18 01:04:49;;;;;;;19.20;15.33;;;9.10;99.90;;;9.92;54.45;103367.91;4920217;28;97249;-55
2022/03/18 01:07:18;;;;;;;19.83;15.63;;;9.00;99.90;;;9.89;53.85;103359.97;4918811;28;97498;-61
2022/03/18 01:09:47;;;;;;;23.87;16.30;;;9.00;99.90;;;9.92;54.51;103365.25;4884228;28;97594;-61
2022/03/18 01:12:12;;;;;;;21.37;16.00;;;9.00;99.90;;;9.82;54.40;103379.22;4943856;28;115020;-60
2022/03/18 01:14:38;;;;;;;19.73;14.83;;;9.00;99.90;;;9.88;54.94;103373.13;4945368;28;126439;-59
2022/03/18 01:17:04;;;;;;;19.80;15.10;;;9.10;99.90;;;9.93;55.22;103363.50;4937794;28;97341;-60
2022/03/18 01:19:30;;;;;;;19.00;14.43;;;9.10;99.90;;;9.92;55.97;103377.56;4941449;28;102539;-57
2022/03/18 01:21:56;;;;;;;21.17;14.53;;;9.00;99.90;;;9.83;54.01;103379.22;4933882;28;97339;-57
2022/03/18 01:24:22;;;;;;;18.93;14.00;;;9.00;99.90;;;9.86;54.19;103382.78;4926126;28;118046;-59
2022/03/18 01:26:47;;;;;;;19.57;14.80;;;9.00;99.90;;;9.78;53.90;103382.69;4938960;28;97559;-60
2022/03/18 01:29:14;;;;;;;17.50;13.20;;;8.90;99.90;;;9.75;54.34;103380.91;4934326;28;108858;-59
2022/03/18 01:31:39;;;;;;;19.50;14.73;;;8.90;99.90;;;9.67;54.81;103382.56;4937513;28;100132;-60
2022/03/18 01:34:05;;;;;;;17.63;13.47;;;8.90;99.90;;;9.55;54.16;103382.44;4935439;28;125740;-61
2022/03/18 01:36:33;;;;;;;17.37;12.73;;;8.80;99.90;;;9.54;55.57;103385.94;4941369;28;96681;-61
2022/03/18 01:39:08;;;;;;;17.27;13.10;;;8.70;99.90;;;9.57;55.10;103386.00;4945410;28;96833;-61
2022/03/18 01:41:33;;;;;;;19.53;14.03;;;8.80;99.90;;;9.59;55.43;103393.91;4927006;28;102254;-61
2022/03/18 01:43:59;;;;;;;18.53;13.30;;;8.80;99.90;;;9.67;55.05;103392.22;4945595;28;127378;-60
2022/03/18 01:46:25;;;;;;;19.20;12.60;;;8.90;99.90;;;9.61;54.73;103397.44;4935605;28;109766;-59
2022/03/18 01:48:51;;;;;;;17.70;12.17;;;8.90;99.90;;;9.50;53.68;103405.22;4928740;28;104669;-59
2022/03/18 01:51:16;;;;;;;17.10;12.07;;;8.80;99.90;;;9.52;53.95;103396.44;4927226;28;97067;-60
2022/03/18 01:53:44;;;;;;;16.67;12.63;;;8.80;99.90;;;9.55;55.15;103408.81;4937417;28;96521;-61
2022/03/18 01:56:11;;;;;;;15.63;12.50;;;8.80;99.90;;;9.70;55.14;103409.00;4924457;28;96847;-55
2022/03/18 01:58:37;;;;;;;17.67;12.20;;;8.80;99.90;;;9.71;54.13;103410.75;4934782;28;97892;-57
2022/03/18 02:01:04;;;;;;;16.30;12.47;;;8.80;99.90;;;9.76;54.46;103409.03;4932728;28;97220;-54
2022/03/18 02:03:30;;;;;;;16.00;11.97;;;8.80;99.90;;;9.60;52.72;103414.13;4932751;28;96557;-58
2022/03/18 02:05:57;;;;;;;15.27;12.07;;;8.80;99.90;;;9.66;54.21;103417.69;4940351;28;113216;-56
2022/03/18 02:08:24;;;;;;;14.07;11.13;;;8.80;99.90;;;9.60;54.93;103422.03;4932926;28;96973;-56
2022/03/18 02:10:50;;;;;;;17.47;11.50;;;8.70;99.90;;;9.51;53.41;103420.16;4942389;28;98740;-56
2022/03/18 02:13:16;;;;;;;15.53;11.50;;;8.70;99.90;;;9.65;55.09;103421.22;4931087;28;96977;-56
2022/03/18 02:15:41;;;;;;;15.73;11.20;;;8.70;99.90;;;9.54;53.24;103418.44;4943429;28;99462;-56
2022/03/18 02:18:07;;;;;;;14.63;11.97;;;8.70;99.90;;;9.51;53.61;103422.78;4934344;28;107031;-63
2022/03/18 02:20:34;;;;;;;13.20;10.87;;;8.70;99.90;;;9.53;54.77;103426.31;4941205;28;122867;-56
2022/03/18 02:23:02;;;;;;;14.77;11.47;;;8.60;99.90;;;9.44;55.18;103427.13;4926629;28;98147;-55
2022/03/18 02:25:28;;;;;;;15.93;11.73;;;8.60;99.90;;;9.35;52.89;103431.38;4930755;28;97176;-60
2022/03/18 02:28:03;;;;;;;13.67;11.40;;;8.50;99.90;;;9.39;54.34;103441.06;4941071;28;97095;-58
2022/03/18 02:30:33;;;;;;;15.20;11.67;;;8.50;99.90;;;9.34;55.15;103438.38;4929409;28;97610;-56
2022/03/18 02:32:59;;;;;;;25.17;11.90;;;8.50;99.90;;;9.48;54.38;103441.19;4935024;28;97709;-56
2022/03/18 02:35:28;;;;;;;15.27;11.53;;;8.60;99.90;;;9.52;54.88;103440.38;4931015;28;97038;-55
2022/03/18 02:37:57;;;;;;;14.17;10.83;;;8.50;99.90;;;9.58;54.40;103437.81;4939946;28;96815;-55
2022/03/18 02:40:26;;;;;;;14.70;11.90;;;8.60;99.90;;;9.53;53.92;103436.88;4941903;28;98539;-55
2022/03/18 02:42:52;;;;;;;14.93;11.30;;;8.50;99.90;;;9.59;53.44;103436.97;4929228;28;102990;-60
2022/03/18 02:45:18;;;;;;;13.70;10.83;;;8.60;99.90;;;9.47;53.40;103442.06;4934324;28;96737;-59
2022/03/18 02:47:44;;;;;;;14.97;11.00;;;8.50;99.90;;;9.35;52.68;103447.16;4942352;28;96788;-60
2022/03/18 02:50:10;;;;;;;16.83;11.47;;;8.50;99.90;;;9.43;54.61;103450.81;4933149;28;98752;-60
2022/03/18 02:52:36;;;;;;;16.77;10.90;;;8.50;99.90;;;9.31;53.67;103455.91;4946588;28;99727;-61
2022/03/18 02:55:02;;;;;;;16.43;11.50;;;8.50;99.90;;;9.18;52.25;103455.72;4942054;28;98716;-59
2022/03/18 02:57:32;;;;;;;17.27;11.23;;;8.50;99.90;;;9.23;54.00;103459.31;4920449;28;97363;-59
2022/03/18 02:59:59;;;;;;;16.77;10.93;;;8.40;99.90;;;9.20;54.51;103464.53;4940761;28;97206;-60
2022/03/18 03:02:25;;;;;;;14.77;10.60;;;8.30;99.90;;;9.14;54.02;103469.72;4933217;28;96960;-60
2022/03/18 03:10:22;;;;;;;15.67;10.70;;;8.30;99.90;;;9.01;53.29;103478.31;4925990;28;97085;-60
2022/03/18 03:12:49;;;;;;;13.80;11.03;;;8.30;99.90;;;9.08;53.83;103482.78;4946165;28;96799;-60
2022/03/18 03:15:14;;;;;;;12.27;10.00;;;8.30;99.90;;;9.09;54.24;103489.81;4940353;28;96776;-60
2022/03/18 03:17:40;;;;;;;12.93;10.03;;;8.30;99.90;;;8.99;53.27;103490.56;4937938;28;100132;-60
2022/03/18 03:20:09;;;;;;;16.27;11.67;;;8.20;99.90;;;8.78;52.56;103484.94;4945101;28;126720;-65
2022/03/18 03:22:35;;;;;;;14.07;11.13;;;8.10;99.90;;;8.71;54.08;103493.59;4940200;28;99531;-60
2022/03/18 03:25:02;;;;;;;18.87;11.17;;;7.90;99.90;;;8.69;53.66;103490.06;4949110;28;104110;-60
2022/03/18 03:27:29;;;;;;;20.07;12.33;;;7.90;99.90;;;8.58;53.80;103493.38;4950434;28;102990;-59
2022/03/18 03:30:07;;;;;;;16.10;11.73;;;8.00;99.90;;;8.67;54.83;103503.16;4936197;28;97293;-59
2022/03/18 03:32:33;;;;;;;14.77;11.27;;;8.00;99.90;;;8.72;55.07;103501.53;4941144;28;103808;-61
2022/03/18 03:34:59;;;;;;;17.03;11.33;;;8.00;99.90;;;8.74;56.34;103499.78;4942240;28;96963;-60
2022/03/18 03:37:28;;;;;;;14.53;12.17;;;8.00;99.90;;;8.78;54.45;103506.00;4935083;28;113182;-60
2022/03/18 03:39:54;;;;;;;14.87;11.43;;;8.00;99.90;;;8.86;55.34;103507.03;4935006;28;96922;-58
2022/03/18 03:42:21;;;;;;;19.77;11.70;;;8.00;99.90;;;8.80;53.99;103499.00;4936303;28;97068;-60
2022/03/18 03:44:47;;;;;;;18.57;11.20;;;8.00;99.90;;;8.73;53.62;103503.28;4938580;28;96867;-59
2022/03/18 03:47:14;;;;;;;16.63;11.30;;;8.00;99.90;;;8.82;54.77;103508.69;4938707;28;96805;-59
2022/03/18 03:49:40;;;;;;;14.20;10.13;;;8.10;99.90;;;8.96;56.45;103511.56;4947646;28;97739;-60
2022/03/18 03:52:08;;;;;;;14.00;9.60;;;8.10;99.90;;;9.01;56.06;103509.91;4935565;28;96943;-64
2022/03/18 03:54:35;;;;;;;13.03;8.40;;;8.10;99.90;;;9.09;56.34;103510.00;4944816;28;97217;-59
2022/03/18 03:57:01;;;;;;;14.23;9.77;;;8.10;99.90;;;9.13;54.15;103506.56;4939590;28;101296;-61
2022/03/18 03:59:26;;;;;;;14.43;9.90;;;8.20;99.90;;;9.07;55.25;103507.34;4942316;28;120345;-60
2022/03/18 04:01:52;;;;;;;11.40;9.33;;;8.20;99.90;;;9.17;55.98;103511.91;4933306;28;121871;-60
2022/03/18 04:04:18;;;;;;;14.03;10.03;;;8.20;99.90;;;9.24;56.18;103513.75;4937523;28;105412;-60
2022/03/18 04:06:43;;;;;;;12.87;10.17;;;8.20;99.90;;;9.21;55.30;103513.72;4944648;28;103041;-61
2022/03/18 04:09:09;;;;;;;11.57;9.20;;;8.20;99.90;;;9.21;55.07;103518.97;4939527;28;122448;-60
2022/03/18 04:11:35;;;;;;;11.17;9.20;;;8.20;99.90;;;9.23;55.17;103519.88;4940918;28;97137;-61
2022/03/18 04:14:01;;;;;;;13.40;9.00;;;8.20;99.90;;;9.30;54.81;103523.53;4946799;28;101296;-60
2022/03/18 04:16:26;;;;;;;13.23;9.60;;;8.30;99.90;;;9.23;52.96;103511.97;4940259;28;104183;-59
2022/03/18 04:19:06;;;;;;;15.20;10.27;;;8.30;99.90;;;9.02;53.03;103514.31;4946642;28;97523;-61
2022/03/18 04:21:34;;;;;;;12.90;9.97;;;8.20;99.90;;;8.93;52.86;103527.31;4939215;28;99601;-61
2022/03/18 04:24:00;;;;;;;13.70;8.87;;;8.10;99.90;;;8.76;53.71;103523.50;4934475;28;96792;-62
2022/03/18 04:26:26;;;;;;;15.70;8.90;;;8.00;99.90;;;8.72;53.35;103526.94;4939991;28;98656;-60
2022/03/18 04:28:51;;;;;;;12.93;8.73;;;7.90;99.90;;;8.78;55.42;103529.69;4930693;28;117591;-60
2022/03/18 04:31:17;;;;;;;15.17;9.47;;;7.90;99.90;;;8.64;54.85;103532.06;4932515;28;127530;-61
2022/03/18 04:33:43;;;;;;;10.33;9.27;;;7.90;99.90;;;8.54;53.09;103533.66;4932903;28;97044;-61
2022/03/18 04:36:09;;;;;;;13.30;9.43;;;7.80;99.90;;;8.51;53.80;103549.38;4938642;28;102278;-63
2022/03/18 04:38:34;;;;;;;12.17;8.87;;;7.80;99.90;;;8.49;52.83;103561.63;4945994;28;125235;-61
2022/03/18 04:41:00;;;;;;;15.80;10.17;;;7.90;99.90;;;8.51;53.78;103549.38;4940180;28;97104;-61
2022/03/18 04:43:26;;;;;;;12.53;9.53;;;7.90;99.90;;;8.55;54.45;103545.97;4941713;28;106362;-60
2022/03/18 04:45:52;;;;;;;14.17;8.90;;;7.90;99.90;;;8.58;55.52;103546.00;4929054;28;96964;-60
2022/03/18 04:48:17;;;;;;;11.23;8.50;;;7.80;99.90;;;8.65;55.87;103547.00;4937160;28;97887;-61
2022/03/18 04:50:43;;;;;;;11.63;8.60;;;7.80;99.90;;;8.64;55.42;103530.31;4929840;28;105346;-61
2022/03/18 04:53:09;;;;;;;12.27;9.13;;;7.70;99.90;;;8.69;54.01;103535.69;4943684;28;98077;-59
2022/03/18 04:55:34;;;;;;;12.00;8.67;;;7.80;99.90;;;8.64;53.50;103535.59;4935357;28;110561;-56
2022/03/18 04:58:00;;;;;;;11.67;7.77;;;7.80;99.90;;;8.63;53.71;103539.06;4939570;28;125619;-58
2022/03/18 05:00:26;;;;;;;11.87;8.77;;;7.80;99.90;;;8.53;52.99;103542.38;4936177;28;115293;-58
2022/03/18 05:02:52;;;;;;;11.43;9.03;;;7.70;99.90;;;8.47;53.46;103552.81;4937013;28;97101;-59
2022/03/18 05:05:19;;;;;;;12.40;9.13;;;7.60;99.90;;;8.54;53.92;103549.47;4928079;28;111692;-59
2022/03/18 05:07:50;;;;;;;10.17;8.63;;;7.60;99.90;;;8.61;56.18;103551.31;4939703;28;96637;-58
2022/03/18 05:10:18;;;;;;;11.77;8.70;;;7.60;99.90;;;8.59;54.78;103547.78;4938615;28;98359;-60
2022/03/18 05:12:47;;;;;;;13.27;9.00;;;7.60;99.90;;;8.54;53.10;103554.72;4911995;28;99093;-57
2022/03/18 05:15:13;;;;;;;12.70;8.13;;;7.60;99.90;;;8.57;53.85;103559.16;4906371;28;99632;-58
2022/03/18 05:17:40;;;;;;;10.20;8.17;;;7.60;99.90;;;8.70;56.01;103565.53;4943033;28;96900;-57
2022/03/18 05:20:09;;;;;;;10.70;8.27;;;7.70;99.90;;;8.60;53.48;103570.59;4942439;28;97253;-58
2022/03/18 05:22:35;;;;;;;11.53;9.00;;;7.70;99.90;;;8.62;53.75;103574.16;4938138;28;96676;-59
2022/03/18 05:25:01;;;;;;;12.70;9.17;;;7.70;99.90;;;8.73;54.85;103586.63;4939935;28;97348;-58
2022/03/18 05:27:27;;;;;;;13.03;9.30;;;7.70;99.90;;;8.65;55.65;103590.00;4929409;28;97555;-53
2022/03/18 05:29:53;;;;;;;12.23;8.50;;;7.60;99.90;;;8.55;53.16;103593.31;4935531;28;120796;-53
2022/03/18 05:32:19;;;;;;;10.50;8.40;;;7.60;99.90;;;8.52;52.74;103606.41;4935490;28;97095;-54
2022/03/18 05:34:45;;;;;;;14.90;9.47;;;7.60;99.90;;;8.46;52.29;103608.94;4945385;28;96955;-58
2022/03/18 05:37:12;;;;;;;14.53;9.00;;;7.60;99.90;;;8.43;53.47;103614.13;4873058;28;97393;-54
2022/03/18 05:39:38;;;;;;;14.97;9.43;;;7.60;99.90;;;8.40;52.96;103614.06;4933709;28;97655;-53
2022/03/18 05:42:04;;;;;;;14.90;8.83;;;7.60;99.90;;;8.47;54.93;103610.69;4932486;28;111698;-56
2022/03/18 05:44:31;;;;;;;12.53;9.20;;;7.50;99.90;;;8.40;52.48;103608.81;4928343;28;96988;-59
2022/03/18 05:46:57;;;;;;;13.73;9.30;;;7.50;99.90;;;8.58;56.09;103614.44;4932395;28;96892;-58
2022/03/18 05:49:23;;;;;;;13.47;8.97;;;7.50;99.90;;;8.44;53.68;103618.53;4941785;28;126305;-57
2022/03/18 05:51:49;;;;;;;12.90;9.03;;;7.50;99.90;;;8.28;52.83;103629.56;4891011;28;97357;-61
2022/03/18 05:54:15;;;;;;;12.97;9.07;;;7.40;99.90;;;8.19;53.10;103640.78;4929453;28;96654;-57
2022/03/18 05:56:54;;;;;;;13.10;8.87;;;7.40;99.90;;;8.50;56.54;103647.59;4929513;28;97268;-57
2022/03/18 05:59:27;;;;;;;12.60;8.47;;;7.50;99.90;;;8.48;54.37;103644.03;4935926;28;96954;-58
2022/03/18 06:01:57;;;;;;;14.23;8.57;;;7.60;99.90;;;8.45;54.26;103644.00;4928020;28;97010;-58
2022/03/18 06:04:24;;;;;;;15.20;7.87;;;7.50;99.90;;;8.66;56.57;103651.41;4933640;28;97126;-55
2022/03/18 06:06:51;;;;;;;12.93;8.63;;;7.60;99.90;;;8.64;54.94;103646.13;4928462;28;97350;-58
2022/03/18 06:12:04;;;;;;;11.83;7.83;;;7.60;99.90;;;8.58;52.80;103656.53;4925908;28;99112;-57
2022/03/18 06:14:31;;;;;;;14.13;9.67;;;7.60;99.90;;;8.56;54.28;103663.53;4934500;28;97175;-58
2022/03/18 06:17:01;;;;;;;15.07;10.10;;;7.60;99.90;;;8.52;53.17;103660.78;4935403;28;97498;-58
2022/03/18 06:19:28;;;;;;;14.60;8.60;;;7.50;99.90;;;8.46;53.37;103666.81;4932161;28;97274;-55
2022/03/18 06:21:58;;;;;;;16.73;10.40;;;7.50;99.90;;;8.44;54.05;103681.69;4940646;28;96754;-60
2022/03/18 06:24:35;;;;;;;14.97;9.13;;;7.40;99.90;;;8.57;55.32;103678.44;4943643;28;97194;-57
2022/03/18 06:27:01;;;;;;;14.63;9.57;;;7.50;99.90;;;8.71;55.41;103683.09;4935870;28;97409;-61
2022/03/18 06:29:28;;;;;;;13.73;9.90;;;7.60;99.90;;;8.52;51.76;103690.59;4941791;28;96987;-60
2022/03/18 06:31:56;;;;;;;16.97;10.13;;;7.60;99.90;;;8.35;53.89;103695.50;4940638;28;97471;-60
2022/03/18 06:34:22;;;;;;;15.03;9.63;;;7.50;99.90;;;8.45;52.38;103699.25;4942723;28;98213;-60
2022/03/18 06:36:50;;;;;;;16.83;9.07;;;7.60;99.90;;;8.59;54.59;103692.53;4941382;28;102159;-61
2022/03/18 06:39:17;;;;;;;14.27;9.23;;;7.70;99.90;;;8.67;56.59;103689.13;4940307;28;103185;-61
2022/03/18 06:41:43;;;;;;;11.70;8.13;;;7.70;99.90;;;8.58;54.76;103677.59;4945420;28;97325;-60
2022/03/18 06:44:09;;;;;;;17.67;9.67;;;7.70;99.90;;;8.67;55.78;103686.50;4940150;28;97043;-60
2022/03/18 06:46:36;;;;;;;13.73;9.13;;;7.70;99.90;;;8.61;56.18;103688.16;4942536;28;99190;-60
2022/03/18 06:49:03;;;;;;;20.30;9.73;;;7.70;99.90;;;8.60;53.93;103688.16;4940504;28;97445;-60
2022/03/18 06:51:29;;;;;;;18.03;10.40;;;7.70;99.90;;;8.53;53.32;103700.28;4937979;28;96956;-60
2022/03/18 06:53:55;;;;;;;19.57;10.70;;;7.70;99.90;;;8.51;55.49;103696.72;4944136;28;104349;-59
2022/03/18 06:56:21;;;;;;;16.00;10.13;;;7.60;99.90;;;8.60;54.24;103712.72;4939393;28;98291;-60
2022/03/18 06:58:47;;;;;;;18.57;10.63;;;7.70;99.90;;;8.69;56.31;103701.50;4944421;28;97122;-57
2022/03/18 07:01:13;;;;;;;18.60;10.10;;;7.80;99.90;;;8.79;55.82;103718.34;4938637;28;96549;-59
2022/03/18 07:03:39;;;;;;;20.33;10.13;;;8.00;99.90;;;8.73;54.21;103724.38;4942763;28;96907;-60
2022/03/18 07:06:06;;;;;;;19.30;10.10;;;8.10;99.90;;;8.65;53.82;103721.59;4909834;28;100447;-60
2022/03/18 07:08:35;;;;;;;15.47;9.93;;;8.10;99.90;;;8.94;55.42;103737.09;4937914;28;104368;-60
2022/03/18 07:11:05;;;;;;;17.87;9.47;;;8.20;99.90;;;8.65;53.83;103726.84;4905124;28;99373;-61
2022/03/18 07:13:31;;;;;;;19.77;10.60;;;8.20;99.90;;;8.75;55.34;103733.19;4872710;28;101189;-60
2022/03/18 07:17:55;;;;;;;18.43;10.73;;;8.10;99.90;;;8.86;54.63;103725.53;4907510;28;98700;-60
2022/03/18 07:18:46;;;;;;;12.50;10.07;;;8.30;99.90;;;8.80;54.77;103714.84;4931903;28;101378;-60
2022/03/18 07:21:12;;;;;;;14.93;10.30;;;8.20;99.90;;;8.78;56.36;103721.84;4936572;28;97264;-61
2022/03/18 07:23:37;;;;;;;15.53;9.93;;;8.20;99.90;;;8.77;55.55;103725.34;4941346;28;96678;-61
2022/03/18 07:26:03;;;;;;;15.23;10.10;;;8.20;99.90;;;8.85;55.86;103723.75;4940965;28;102412;-60
2022/03/18 07:28:29;;;;;;;14.63;10.17;;;8.20;99.90;;;8.84;55.44;103730.78;4939501;28;99722;-60
2022/03/18 07:31:00;;;;;;;15.70;10.57;;;8.20;99.90;;;8.85;55.96;103723.75;4941877;28;97667;-60
2022/03/18 07:33:26;;;;;;;19.23;10.40;;;8.30;99.90;;;9.00;55.69;103733.72;4944630;28;97642;-60
2022/03/18 07:35:51;;;;;;;14.73;9.63;;;8.40;99.90;;;9.06;55.50;103729.44;4942810;28;107267;-60
2022/03/18 07:38:23;;;;;;;15.23;9.90;;;8.50;99.90;;;9.08;55.79;103727.72;4935029;28;125065;-60
2022/03/18 07:40:48;;;;;;;17.43;10.27;;;8.50;99.90;;;9.06;55.51;103724.16;4924905;28;97153;-60
2022/03/18 07:43:14;;;;;;;15.13;9.87;;;8.50;99.90;;;9.07;55.57;103720.66;4942515;28;96718;-60
2022/03/18 07:45:45;;;;;;;16.27;10.23;;;8.60;99.90;;;9.14;56.21;103726.97;4941034;28;114644;-60
2022/03/18 07:48:11;;;;;;;15.30;9.97;;;8.70;99.90;;;9.16;55.97;103726.13;4939965;28;97965;-61
2022/03/18 07:50:39;;;;;;;14.77;9.00;;;8.70;99.90;;;9.22;55.09;103720.97;4944828;28;97605;-59
2022/03/18 07:53:09;;;;;;;14.47;8.53;;;8.80;99.90;;;9.32;54.97;103731.69;4935582;28;96882;-58
2022/03/18 07:55:38;;;;;;;13.60;9.30;;;9.00;99.90;;;9.47;54.11;103729.31;4942640;28;101495;-60
2022/03/18 07:58:05;;;;;;;17.30;9.10;;;9.10;99.90;;;9.48;54.26;103724.06;4936224;28;97002;-60
2022/03/18 08:00:32;;;;;;;13.87;8.70;;;9.20;99.90;;;9.57;54.65;103712.81;4928236;28;96823;-60
2022/03/18 08:02:58;;;;;;;17.27;8.80;;;9.20;99.90;;;9.64;54.17;103709.41;4941189;28;96908;-60
2022/03/18 08:05:24;;;;;;;15.13;8.43;;;9.30;99.90;;;9.63;54.08;103707.63;4931295;28;122997;-60
2022/03/18 08:07:49;;;;;;;15.80;8.43;;;9.30;99.90;;;9.75;54.19;103713.09;4946412;28;97326;-60
2022/03/18 08:10:17;;;;;;;14.67;8.93;;;9.30;99.90;;;9.91;53.22;103729.16;4943298;28;96653;-61
2022/03/18 08:12:45;;;;;;;12.83;8.27;;;9.50;99.90;;;9.97;52.52;103731.88;4944613;28;96938;-59
2022/03/18 08:15:13;;;;;;;15.13;8.37;;;9.60;99.90;;;10.18;52.54;103728.69;4938618;28;97174;-60
2022/03/18 08:17:41;;;;;;;18.13;7.80;;;9.80;99.90;;;10.31;51.20;103735.97;4940261;28;97053;-60
2022/03/18 08:20:09;;;;;;;10.67;6.47;;;10.00;99.90;;;10.47;51.45;103734.41;4941515;28;96963;-64
2022/03/18 08:22:36;;;;;;;15.53;8.23;;;10.10;99.90;;;10.46;52.17;103736.19;4938295;28;96821;-60
2022/03/18 08:25:04;;;;;;;15.87;6.47;;;10.20;99.90;;;10.70;50.39;103740.88;4942349;28;97360;-58
2022/03/18 08:27:30;;;;;;;17.43;7.00;;;10.40;99.90;;;10.87;51.19;103739.34;4939886;28;97296;-55
2022/03/18 08:29:59;;;;;;;11.73;6.60;;;10.50;99.90;;;10.95;50.24;103727.09;4938033;28;96890;-52
2022/03/18 08:32:27;;;;;;;15.77;6.80;;;10.60;99.90;;;11.02;49.63;103726.31;4930817;28;97092;-56
2022/03/18 08:34:54;;;;;;;13.30;6.67;;;10.70;99.90;;;11.08;51.14;103727.25;4930810;28;97954;-57
2022/03/18 08:37:56;;;;;;;13.50;6.67;;;10.70;99.90;;;10.98;50.52;103721.84;4934663;28;98077;-56
2022/03/18 08:40:09;;;;;;;11.40;5.97;;;10.60;99.90;;;10.87;49.64;103726.13;4937127;28;98145;-57
2022/03/18 08:42:35;;;;;;;10.23;6.67;;;10.50;99.90;;;10.86;50.48;103732.28;4930129;28;97244;-57
2022/03/18 08:45:03;;;;;;;13.53;6.27;;;10.50;99.90;;;10.96;48.47;103743.84;4941436;28;96853;-56
2022/03/18 08:47:31;;;;;;;17.77;7.03;;;10.60;99.30;;;11.14;48.09;103748.44;4898271;28;96994;-58
2022/03/18 08:49:57;;;;;;;14.23;6.53;;;10.80;99.20;;;11.13;48.14;103746.66;4907877;28;96663;-54
2022/03/18 08:52:24;;;;;;;9.93;6.43;;;10.80;99.60;;;11.44;48.88;103756.69;4920822;28;97077;-54
2022/03/18 08:54:54;;;;;;;10.63;5.83;;;11.00;99.10;;;11.65;48.81;103752.47;4957517;28;96646;-55
2022/03/18 08:57:20;;;;;;;13.30;6.17;;;11.20;98.90;;;11.78;48.31;103744.66;4933051;28;96987;-53
2022/03/18 08:59:46;;;;;;;11.53;6.23;;;11.30;98.40;;;12.02;49.28;103757.22;4942460;28;96880;-56
2022/03/18 09:02:17;;;;;;;9.40;6.30;;;11.60;99.40;;;12.20;47.26;103754.72;4938195;28;97077;-57
2022/03/18 09:04:43;;;;;;;7.93;5.53;;;11.90;98.30;;;12.16;46.71;103750.28;4940478;28;100660;-57
2022/03/18 09:07:09;;;;;;;13.70;5.37;;;11.80;97.90;;;12.00;46.26;103751.03;4938157;28;96962;-56
2022/03/18 09:09:40;;;;;;;10.37;5.73;;;11.80;97.40;;;12.08;45.72;103757.25;4941030;28;96881;-55
2022/03/18 09:12:06;;;;;;;11.13;5.60;;;11.80;97.40;;;12.05;46.43;103765.19;4941731;28;97409;-54
2022/03/18 09:14:33;;;;;;;10.50;5.17;;;11.80;97.50;;;12.13;48.14;103768.75;4941315;28;103003;-55
2022/03/18 09:17:04;;;;;;;8.53;4.80;;;11.80;98.20;;;12.31;46.04;103762.72;4937224;28;98307;-57
2022/03/18 09:19:30;;;;;;;9.20;5.40;;;12.00;96.90;;;12.43;45.83;103761.88;4935114;28;96861;-55
2022/03/18 09:21:56;;;;;;;11.67;5.77;;;12.10;97.10;;;12.44;46.71;103767.22;4941114;28;97019;-56
2022/03/18 09:24:26;;;;;;;12.37;5.57;;;12.20;97.80;;;12.27;45.15;103775.91;4939130;28;97412;-55
2022/03/18 09:26:51;;;;;;;9.43;4.77;;;12.10;96.50;;;12.32;44.99;103779.50;4940367;28;99162;-55
2022/03/18 09:29:17;;;;;;;8.37;4.90;;;12.10;96.40;;;12.45;45.80;103784.00;4932453;28;96857;-55
2022/03/18 09:31:49;;;;;;;10.43;4.00;;;12.20;96.40;;;12.87;46.64;103785.06;4937114;28;96911;-57
2022/03/18 09:34:15;;;;;;;9.93;5.27;;;12.60;97.50;;;13.03;46.14;103776.31;4936001;28;96887;-53
2022/03/18 09:36:41;;;;;;;9.20;4.40;;;12.90;96.20;;;13.09;45.96;103785.16;4932319;28;120931;-55
2022/03/18 09:39:07;;;;;;;9.97;4.53;;;12.90;96.60;;;13.42;45.42;103790.56;4914236;28;99252;-60
2022/03/18 09:41:32;;;;;;;9.87;5.10;;;13.30;96.10;;;13.55;45.15;103787.06;4906166;28;102974;-59
2022/03/18 09:43:59;;;;;;;7.80;4.60;;;13.50;95.60;;;13.70;42.63;103797.69;4951873;28;97376;-52
2022/03/18 09:46:25;;;;;;;6.77;2.97;;;13.70;94.20;;;13.58;41.62;103805.63;4935281;28;97360;-56
2022/03/18 09:48:52;;;;;;;4.27;2.40;;;13.50;92.90;;;13.55;43.73;103802.97;4940667;28;97319;-53
2022/03/18 09:51:18;;;;;;;5.07;2.80;;;13.30;91.70;;;13.69;44.59;103795.91;4941911;28;96814;-59
2022/03/18 09:53:44;;;;;;;2.83;1.93;;;13.40;94.50;;;13.97;44.79;103803.00;4943246;28;124706;-59
2022/03/18 09:56:11;;;;;;;5.20;2.97;;;13.80;95.50;;;14.21;44.15;103809.22;4930120;28;113451;-53
2022/03/18 09:58:37;;;;;;;5.83;3.10;;;14.20;95.00;;;14.30;40.57;103806.50;4943612;28;96618;-56
2022/03/18 10:01:04;;;;;;;7.33;3.50;;;14.30;91.90;;;14.43;43.34;103805.59;4937250;28;101651;-57
2022/03/18 10:03:44;;;;;;;6.30;3.10;;;14.40;93.50;;;14.64;42.88;103809.16;4944450;28;98678;-58
2022/03/18 10:06:11;;;;;;;4.03;2.20;;;14.60;93.60;;;14.77;42.68;103810.88;4933546;28;98412;-55
2022/03/18 10:08:37;;;;;;;5.80;2.43;;;14.80;93.70;;;14.86;42.60;103814.38;4940854;28;96792;-58
2022/03/18 10:11:36;;;;;;;8.93;3.17;;;14.90;93.50;;;14.91;39.80;103803.75;4944178;28;96803;-59
2022/03/18 10:14:15;;;;;;;6.43;3.00;;;14.90;90.80;;;14.95;40.62;103805.50;4933131;28;103122;-59
2022/03/18 10:16:41;;;;;;;12.00;2.87;;;14.90;91.80;;;15.03;41.74;103806.31;4941700;28;102758;-59
2022/03/18 10:19:08;;;;;;;5.47;2.70;;;15.00;92.50;;;15.06;37.91;103795.69;4939193;28;96726;-63
2022/03/18 10:22:03;;;;;;;4.13;2.17;;;15.10;87.70;;;15.12;41.36;103800.97;4941778;28;96732;-57
2022/03/18 10:24:34;;;;;;;2.87;1.40;;;15.10;90.50;;;15.16;40.51;103785.88;4935308;28;97728;-55